Time;durP1;ratioP1;P1;durP2;ratioP2;P2;SDS_P1;SDS_P2;PMS_P1;PMS_P2;Temp;Humidity;BMP_temperature;BMP_pressure;BME280_temperature;BME280_humidity;BME280_pressure;Samples;Min_cycle;Max_cycle;Signal;HPM_P1;HPM_P2
2022/02/13 00:02:15;;;;;;;9.40;8.37;;;;;;;0.25;87.33;151433.84;5084376;28;20487;-76
2022/02/13 00:04:52;;;;;;;9.73;8.40;;;;;;;0.19;86.96;151419.72;5105721;28;20445;-76
2022/02/13 00:07:28;;;;;;;11.63;8.17;;;;;;;0.21;84.97;151423.59;5099048;28;20441;-76
2022/02/13 00:10:07;;;;;;;10.80;7.40;;;;;;;0.18;84.16;151415.88;5102042;28;20446;-76
2022/02/13 00:12:43;;;;;;;8.93;7.17;;;;;;;0.24;86.49;151432.53;5104434;28;20444;-76
2022/02/13 00:15:18;;;;;;;9.97;8.47;;;;;;;0.20;87.25;151422.28;5107523;28;20433;-76
2022/02/13 00:17:54;;;;;;;12.10;8.17;;;;;;;0.19;85.98;151418.41;5086114;28;20459;-76
2022/02/13 00:20:30;;;;;;;10.57;8.83;;;;;;;0.20;86.24;151421.00;5085389;28;20493;-75
2022/02/13 00:23:05;;;;;;;10.43;8.37;;;;;;;0.23;88.03;151430.00;5108717;28;20459;-76
2022/02/13 00:25:43;;;;;;;12.27;8.50;;;;;;;0.22;86.74;151427.41;5086833;28;20494;-76
2022/02/13 00:28:19;;;;;;;11.47;7.73;;;;;;;0.29;89.27;151444.13;5101755;28;20437;-76
2022/02/13 00:30:54;;;;;;;11.20;8.43;;;;;;;0.25;85.85;151433.84;5100272;28;20813;-76
2022/02/13 00:33:30;;;;;;;10.17;7.50;;;;;;;0.22;87.81;151426.13;5090206;28;20786;-76
2022/02/13 00:36:06;;;;;;;11.43;8.90;;;;;;;0.16;89.44;151410.75;5098289;28;20454;-75
2022/02/13 00:38:42;;;;;;;8.90;8.00;;;;;;;0.14;90.33;151406.88;5089188;28;20953;-76
2022/02/13 00:41:20;;;;;;;10.77;8.70;;;;;;;0.11;87.55;151397.94;5104203;28;20464;-76
2022/02/13 00:43:55;;;;;;;10.90;8.60;;;;;;;0.07;87.24;151387.63;5106648;28;20505;-76
2022/02/13 00:46:31;;;;;;;10.90;8.37;;;;;;;0.02;87.85;151374.81;5096952;28;20447;-76
2022/02/13 00:49:07;;;;;;;13.10;10.00;;;;;;;0.02;89.27;151374.81;5105175;28;20441;-76
2022/02/13 00:51:43;;;;;;;11.00;8.73;;;;;;;0.07;89.47;151387.63;5090237;28;20855;-76
2022/02/13 00:54:18;;;;;;;12.30;9.00;;;;;;;-0.03;89.13;151364.53;5097891;28;20455;-76
2022/02/13 00:56:55;;;;;;;11.60;9.53;;;;;;;-0.06;86.82;151356.88;5103087;28;20542;-76
2022/02/13 00:59:31;;;;;;;10.53;9.37;;;;;;;-0.07;88.33;151354.28;5105109;28;20464;-76
2022/02/13 01:02:07;;;;;;;11.83;8.90;;;;;;;-0.07;89.28;151354.28;5084859;28;20446;-76
2022/02/13 01:04:42;;;;;;;12.50;9.50;;;;;;;-0.09;88.92;151347.88;5101757;28;20996;-76
2022/02/13 01:07:18;;;;;;;11.77;8.67;;;;;;;-0.12;89.40;151340.16;5103837;28;20451;-76
2022/02/13 01:09:53;;;;;;;11.83;8.90;;;;;;;-0.15;89.61;151333.75;5104177;28;20919;-76
2022/02/13 01:12:30;;;;;;;11.17;9.50;;;;;;;-0.08;91.75;151351.69;5101724;28;20546;-76
2022/02/13 01:15:06;;;;;;;12.60;9.67;;;;;;;-0.07;89.97;151354.28;5089103;28;20452;-76
2022/02/13 01:17:42;;;;;;;10.47;8.73;;;;;;;-0.05;91.05;151359.41;5087058;28;20474;-76
2022/02/13 01:20:18;;;;;;;10.47;7.90;;;;;;;-0.01;91.52;151369.69;5101802;28;20536;-76
2022/02/13 01:22:54;;;;;;;9.67;8.10;;;;;;;-0.04;88.32;151361.97;5101482;28;20455;-76
2022/02/13 01:25:29;;;;;;;10.60;8.63;;;;;;;-0.04;90.14;151361.97;5089405;28;20452;-76
2022/02/13 01:28:07;;;;;;;10.70;8.43;;;;;;;-0.04;90.66;151360.69;5093282;28;20546;-76
2022/02/13 01:30:42;;;;;;;11.50;8.70;;;;;;;-0.01;91.34;151369.69;5105383;28;20937;-76
2022/02/13 01:33:18;;;;;;;10.67;8.33;;;;;;;-0.03;90.38;151364.53;5085143;28;20542;-76
2022/02/13 01:35:54;;;;;;;13.47;9.07;;;;;;;0.06;90.98;151386.34;5102525;28;21068;-76
2022/02/13 01:38:31;;;;;;;9.57;7.77;;;;;;;0.07;91.67;151387.63;5101987;28;20440;-76
2022/02/13 01:41:07;;;;;;;8.77;7.77;;;;;;;0.05;90.82;151382.50;5090100;28;20558;-76
2022/02/13 01:43:44;;;;;;;11.80;8.97;;;;;;;0.04;89.99;151381.22;5105433;28;20474;-76
2022/02/13 01:46:20;;;;;;;18.30;8.80;;;;;;;0.09;91.11;151392.75;5086890;28;20554;-75
2022/02/13 01:48:55;;;;;;;13.00;9.20;;;;;;;0.08;89.60;151390.22;5103048;28;20533;-76
2022/02/13 01:51:31;;;;;;;13.13;8.07;;;;;;;0.06;89.73;151386.34;5104014;28;20927;-76
2022/02/13 01:54:06;;;;;;;10.33;8.20;;;;;;;0.05;92.77;151382.50;5100040;28;20451;-75
2022/02/13 01:56:42;;;;;;;10.63;8.27;;;;;;;0.04;92.01;151379.94;5098332;28;20461;-75
2022/02/13 01:59:19;;;;;;;12.77;9.27;;;;;;;-0.01;91.16;151369.69;5101116;28;20459;-76
2022/02/13 02:01:55;;;;;;;11.20;9.03;;;;;;;0.03;93.03;151377.41;5103562;28;20449;-76
2022/02/13 02:04:30;;;;;;;9.93;8.30;;;;;;;-0.02;92.22;151367.09;5099778;28;20542;-76
2022/02/13 02:07:06;;;;;;;14.37;9.43;;;;;;;-0.07;93.13;151352.97;5103001;28;20851;-76
2022/02/13 02:09:45;;;;;;;10.90;8.90;;;;;;;-0.06;94.53;151356.88;5104887;28;21086;-76
2022/02/13 02:12:21;;;;;;;12.50;9.60;;;;;;;-0.07;92.47;151352.97;5105179;28;20460;-76
2022/02/13 02:14:58;;;;;;;10.77;9.00;;;;;;;-0.06;93.14;151356.88;5098709;28;21042;-76
2022/02/13 02:17:34;;;;;;;11.80;9.00;;;;;;;-0.05;94.49;151359.41;5087017;28;20549;-76
2022/02/13 02:20:11;;;;;;;13.23;9.80;;;;;;;-0.14;91.91;151335.03;5105644;28;20942;-76
2022/02/13 02:22:49;;;;;;;11.13;9.10;;;;;;;-0.16;92.52;151331.16;5100867;28;20888;-76
2022/02/13 02:25:25;;;;;;;11.30;9.40;;;;;;;-0.17;93.83;151328.63;5084690;28;20463;-76
2022/02/13 02:28:01;;;;;;;10.70;9.50;;;;;;;-0.20;94.54;151320.91;5099525;28;20464;-76
2022/02/13 02:30:37;;;;;;;13.27;9.90;;;;;;;-0.23;94.50;151311.94;5101642;27;20443;-76
2022/02/13 02:33:12;;;;;;;14.00;10.70;;;;;;;-0.27;94.08;151302.97;5101259;28;21049;-76
2022/02/13 02:35:48;;;;;;;12.40;10.97;;;;;;;-0.27;94.17;151301.69;5102566;28;20883;-76
2022/02/13 02:38:24;;;;;;;11.60;10.20;;;;;;;-0.33;92.62;151287.56;5102323;28;20451;-76
2022/02/13 02:41:01;;;;;;;14.03;9.60;;;;;;;-0.37;92.80;151277.28;5103354;28;20553;-76
2022/02/13 02:43:36;;;;;;;13.90;10.40;;;;;;;-0.31;95.77;151292.69;5101631;28;20486;-76
2022/02/13 02:46:13;;;;;;;11.80;9.73;;;;;;;-0.36;94.04;151278.56;5098939;28;20487;-75
2022/02/13 02:48:48;;;;;;;13.17;10.43;;;;;;;-0.31;94.23;151292.69;5117869;27;20456;-76
2022/02/13 02:51:24;;;;;;;12.83;10.20;;;;;;;-0.33;95.25;151287.56;5100053;28;20448;-76
2022/02/13 02:54:00;;;;;;;13.97;9.90;;;;;;;-0.33;95.13;151286.28;5089181;28;20452;-76
2022/02/13 02:56:37;;;;;;;14.53;9.70;;;;;;;-0.35;93.06;151281.16;5099197;28;20453;-76
2022/02/13 02:59:13;;;;;;;11.63;10.43;;;;;;;-0.32;94.08;151290.09;5100398;28;20445;-76
2022/02/13 03:01:49;;;;;;;15.00;10.17;;;;;;;-0.29;95.62;151297.81;5090172;28;20796;-76
2022/02/13 03:04:24;;;;;;;17.07;11.57;;;;;;;-0.33;93.63;151286.28;5084297;28;20873;-75
2022/02/13 03:07:00;;;;;;;13.93;9.57;;;;;;;-0.36;93.28;151279.88;5089350;28;20457;-76
2022/02/13 03:09:36;;;;;;;15.33;10.47;;;;;;;-0.34;93.51;151284.97;5089678;28;20904;-76
2022/02/13 03:12:12;;;;;;;11.10;10.03;;;;;;;-0.38;92.62;151274.75;5101719;28;20459;-76
2022/02/13 03:14:48;;;;;;;12.53;10.23;;;;;;;-0.34;93.36;151284.97;5106504;28;20793;-76
2022/02/13 03:17:23;;;;;;;11.70;9.23;;;;;;;-0.37;94.27;151277.28;5096738;28;20462;-76
2022/02/13 03:20:00;;;;;;;10.70;9.30;;;;;;;-0.32;94.66;151288.84;5104044;28;20465;-76
2022/02/13 03:22:35;;;;;;;12.03;9.77;;;;;;;-0.31;95.75;151292.69;5105357;28;20546;-76
2022/02/13 03:25:11;;;;;;;10.80;8.67;;;;;;;-0.30;96.64;151295.28;5086297;28;20485;-76
2022/02/13 03:27:48;;;;;;;13.40;9.93;;;;;;;-0.26;96.61;151304.22;5098184;28;20452;-76
2022/02/13 03:30:23;;;;;;;13.40;9.60;;;;;;;-0.25;95.98;151308.09;5104466;28;20468;-76
2022/02/13 03:32:59;;;;;;;12.10;9.50;;;;;;;-0.29;94.92;151296.56;5103487;28;20451;-76
2022/02/13 03:35:35;;;;;;;13.63;10.33;;;;;;;-0.31;95.70;151291.41;5106652;28;20489;-76
2022/02/13 03:38:11;;;;;;;11.77;9.23;;;;;;;-0.37;96.52;151277.28;5091082;28;20817;-76
2022/02/13 03:40:46;;;;;;;11.57;8.90;;;;;;;-0.34;96.53;151284.97;5089895;28;20466;-76
2022/02/13 03:43:23;;;;;;;15.60;10.23;;;;;;;-0.35;96.33;151281.16;5090489;28;20469;-76
2022/02/13 03:45:59;;;;;;;13.47;10.23;;;;;;;-0.36;95.21;151279.88;5107682;28;20439;-76
2022/02/13 03:48:34;;;;;;;12.77;8.90;;;;;;;-0.37;95.43;151277.28;5109156;28;20449;-76
2022/02/13 03:51:10;;;;;;;12.13;10.17;;;;;;;-0.35;95.48;151282.44;5093299;28;22688;-76
2022/02/13 03:53:46;;;;;;;11.87;9.30;;;;;;;-0.39;94.41;151270.88;5110242;28;20432;-76
2022/02/13 03:56:22;;;;;;;12.87;10.47;;;;;;;-0.39;95.19;151272.16;5105285;28;20521;-76
2022/02/13 03:58:59;;;;;;;12.00;9.00;;;;;;;-0.38;95.72;151273.44;5109164;28;20973;-76
2022/02/13 04:01:35;;;;;;;13.30;9.43;;;;;;;-0.35;95.71;151281.16;5108854;28;20474;-76
2022/02/13 04:04:11;;;;;;;11.67;9.00;;;;;;;-0.38;96.01;151273.44;5108850;28;20450;-76
2022/02/13 04:06:46;;;;;;;10.10;8.23;;;;;;;-0.38;95.52;151274.75;5108379;28;20576;-76
2022/02/13 04:09:22;;;;;;;12.27;9.47;;;;;;;-0.34;96.53;151284.97;5099115;28;20942;-76
2022/02/13 04:11:57;;;;;;;12.27;8.70;;;;;;;-0.34;97.91;151284.97;5091466;28;20450;-76
2022/02/13 04:14:35;;;;;;;12.10;9.93;;;;;;;-0.33;97.81;151286.28;5085539;28;20456;-76
2022/02/13 04:17:11;;;;;;;11.80;8.60;;;;;;;-0.35;96.41;151282.44;5108162;28;20447;-76
2022/02/13 04:19:47;;;;;;;12.87;8.60;;;;;;;-0.34;97.01;151284.97;5095375;28;20451;-76
2022/02/13 04:22:24;;;;;;;10.63;8.40;;;;;;;-0.36;96.14;151279.88;5109782;28;20446;-76
2022/02/13 04:24:59;;;;;;;10.50;8.17;;;;;;;-0.36;96.04;151279.88;5107606;28;20437;-76
2022/02/13 04:27:36;;;;;;;12.07;8.87;;;;;;;-0.33;97.34;151287.56;5091443;28;20451;-77
2022/02/13 04:30:14;;;;;;;11.43;9.27;;;;;;;-0.33;95.99;151287.56;5109028;28;20843;-76
2022/02/13 04:32:49;;;;;;;12.27;9.10;;;;;;;-0.31;95.27;151291.41;5103904;28;20440;-75
2022/02/13 04:35:25;;;;;;;9.90;8.87;;;;;;;-0.31;95.69;151291.41;5107615;28;20457;-76
2022/02/13 04:38:00;;;;;;;9.27;7.97;;;;;;;-0.32;97.16;151290.09;5087632;28;20788;-76
2022/02/13 04:40:36;;;;;;;10.67;8.73;;;;;;;-0.35;96.83;151282.44;5101486;28;20460;-76
2022/02/13 04:43:12;;;;;;;11.50;9.10;;;;;;;-0.39;97.07;151272.16;5107963;28;20542;-76
2022/02/13 04:45:49;;;;;;;11.80;8.87;;;;;;;-0.36;97.03;151279.88;5106305;28;20447;-75
2022/02/13 04:48:24;;;;;;;12.87;9.33;;;;;;;-0.38;98.06;151274.75;5106164;28;20436;-76
2022/02/13 04:51:00;;;;;;;11.13;8.40;;;;;;;-0.36;98.31;151278.56;5103698;28;20440;-76
2022/02/13 04:53:35;;;;;;;10.50;8.33;;;;;;;-0.36;96.32;151278.56;5102806;28;20448;-76
2022/02/13 04:56:11;;;;;;;12.57;9.00;;;;;;;-0.36;96.35;151279.88;5107613;28;20486;-76
2022/02/13 04:58:47;;;;;;;11.13;7.97;;;;;;;-0.37;96.40;151277.28;5107826;28;20531;-76
2022/02/13 05:01:24;;;;;;;9.50;7.40;;;;;;;-0.36;96.21;151279.88;5092268;28;20471;-76
2022/02/13 05:03:59;;;;;;;9.13;8.07;;;;;;;-0.34;95.80;151284.97;5091412;28;20449;-76
2022/02/13 05:06:35;;;;;;;9.90;8.10;;;;;;;-0.35;96.51;151282.44;5107698;27;20444;-76
2022/02/13 05:09:10;;;;;;;10.23;8.27;;;;;;;-0.30;96.05;151295.28;5098477;28;20542;-76
2022/02/13 05:11:46;;;;;;;9.30;8.00;;;;;;;-0.28;97.36;151300.41;5107787;28;20436;-76
2022/02/13 05:14:21;;;;;;;10.13;8.87;;;;;;;-0.26;96.70;151305.50;5093037;28;20448;-76
2022/02/13 05:16:58;;;;;;;8.60;7.30;;;;;;;-0.23;95.35;151311.94;5106924;28;20439;-76
2022/02/13 05:19:34;;;;;;;9.30;7.50;;;;;;;-0.24;95.56;151310.63;5087106;28;20559;-76
2022/02/13 05:22:10;;;;;;;10.70;8.13;;;;;;;-0.19;96.37;151322.22;5103467;28;20483;-76
2022/02/13 05:24:45;;;;;;;14.00;8.57;;;;;;;-0.16;97.04;151331.16;5105737;28;20447;-76
2022/02/13 05:27:21;;;;;;;9.63;7.60;;;;;;;-0.16;96.04;151331.16;5088613;28;20552;-76
2022/02/13 05:29:57;;;;;;;7.77;6.57;;;;;;;-0.12;96.80;151340.16;5105582;28;20458;-76
2022/02/13 05:32:34;;;;;;;9.27;7.00;;;;;;;-0.13;96.31;151338.88;5091209;28;20455;-75
2022/02/13 05:35:09;;;;;;;7.87;6.50;;;;;;;-0.10;95.75;151346.56;5105829;28;20440;-76
2022/02/13 05:37:45;;;;;;;7.77;6.80;;;;;;;-0.09;96.37;151349.16;5104440;28;20852;-76
2022/02/13 05:40:21;;;;;;;11.77;7.03;;;;;;;-0.08;94.78;151350.44;5087860;28;20463;-76
2022/02/13 05:42:59;;;;;;;9.20;6.60;;;;;;;-0.08;95.71;151350.44;5101999;28;20976;-76
2022/02/13 05:45:35;;;;;;;10.57;7.27;;;;;;;-0.07;96.07;151354.28;5087051;28;20436;-76
2022/02/13 05:48:14;;;;;;;9.07;6.93;;;;;;;-0.04;97.51;151360.69;5104400;28;20433;-76
2022/02/13 05:50:49;;;;;;;9.73;7.00;;;;;;;0.02;98.21;151374.81;5106940;28;20535;-76
2022/02/13 05:53:25;;;;;;;8.23;6.23;;;;;;;0.00;96.79;151372.22;5106030;28;20456;-75
2022/02/13 05:56:00;;;;;;;9.40;6.80;;;;;;;0.00;98.40;151372.22;5104880;28;20476;-76
2022/02/13 05:58:39;;;;;;;7.73;5.90;;;;;;;0.03;95.68;151377.41;5105525;28;20556;-76
2022/02/13 06:01:15;;;;;;;10.80;6.90;;;;;;;0.04;96.70;151381.22;5106148;28;20969;-76
2022/02/13 06:03:53;;;;;;;8.40;6.33;;;;;;;0.06;97.51;151385.06;5097859;28;20444;-76
2022/02/13 06:06:28;;;;;;;11.80;7.17;;;;;;;0.08;97.82;151390.22;5089635;28;20475;-76
2022/02/13 06:09:04;;;;;;;9.00;7.20;;;;;;;0.07;97.56;151387.63;5082627;28;20440;-76
2022/02/13 06:11:39;;;;;;;8.80;6.70;;;;;;;0.06;98.20;151386.34;5103547;28;20442;-76
2022/02/13 06:14:15;;;;;;;9.00;7.03;;;;;;;0.06;97.18;151386.34;5101214;28;20437;-75
2022/02/13 06:16:51;;;;;;;6.67;5.90;;;;;;;0.07;96.54;151387.63;5105014;28;20456;-76
2022/02/13 06:19:28;;;;;;;10.10;6.33;;;;;;;0.08;97.68;151390.22;5091169;28;20461;-76
2022/02/13 06:22:04;;;;;;;7.07;5.83;;;;;;;0.07;96.64;151387.63;5096814;28;20897;-76
2022/02/13 06:24:39;;;;;;;9.00;6.63;;;;;;;0.06;96.38;151385.06;5086421;28;20490;-77
2022/02/13 06:27:15;;;;;;;7.40;6.00;;;;;;;0.05;97.19;151382.50;5091391;28;20455;-76
2022/02/13 06:29:51;;;;;;;7.93;6.60;;;;;;;0.07;97.43;151387.63;5121445;27;20530;-76
2022/02/13 06:32:26;;;;;;;9.53;6.47;;;;;;;0.06;97.58;151385.06;5106265;28;20440;-76
2022/02/13 06:35:04;;;;;;;8.60;5.90;;;;;;;0.05;96.94;151382.50;5102138;28;20446;-76
2022/02/13 06:37:39;;;;;;;10.47;6.43;;;;;;;0.05;96.93;151383.81;5098991;28;20470;-76
2022/02/13 06:40:15;;;;;;;7.87;6.10;;;;;;;0.04;97.22;151379.94;5101613;28;20474;-76
2022/02/13 06:42:50;;;;;;;9.10;6.70;;;;;;;0.07;98.18;151387.63;5086291;28;20571;-76
2022/02/13 06:45:26;;;;;;;10.17;7.10;;;;;;;0.04;98.30;151381.22;5089393;28;20448;-76
2022/02/13 06:48:02;;;;;;;7.90;5.77;;;;;;;0.06;98.75;151385.06;5106320;28;20440;-76
2022/02/13 06:50:39;;;;;;;9.63;6.10;;;;;;;0.09;98.67;151392.75;5096125;28;20437;-76
2022/02/13 06:53:14;;;;;;;8.67;5.60;;;;;;;0.11;98.84;151397.94;5103836;28;20472;-76
2022/02/13 06:55:50;;;;;;;7.43;6.10;;;;;;;0.15;98.37;151408.19;5101804;28;20463;-77
2022/02/13 06:58:26;;;;;;;7.30;5.57;;;;;;;0.17;97.95;151414.59;5103375;28;20557;-76
2022/02/13 07:01:01;;;;;;;9.77;6.83;;;;;;;0.22;97.29;151427.41;5104009;28;20452;-76
2022/02/13 07:03:37;;;;;;;8.93;6.50;;;;;;;0.35;98.01;151459.50;5119346;27;20518;-76
2022/02/13 07:06:14;;;;;;;9.03;5.80;;;;;;;0.50;96.46;151498.03;5085177;28;20448;-75
2022/02/13 07:08:50;;;;;;;7.60;5.97;;;;;;;0.69;95.87;151546.78;5086884;28;20443;-76
2022/02/13 07:11:25;;;;;;;12.43;6.70;;;;;;;0.88;95.39;151594.31;5119317;28;20936;-76
2022/02/13 07:14:01;;;;;;;8.30;6.27;;;;;;;1.08;93.77;151647.00;5084272;28;20459;-77
2022/02/13 07:16:36;;;;;;;8.07;6.43;;;;;;;1.34;93.76;151711.19;5098054;28;20438;-76
2022/02/13 07:19:12;;;;;;;6.70;6.00;;;;;;;1.55;93.62;151765.16;5103419;28;20537;-77
2022/02/13 07:21:49;;;;;;;8.30;5.90;;;;;;;1.74;92.25;151814.00;5105230;28;20507;-76
2022/02/13 07:24:25;;;;;;;7.80;6.23;;;;;;;1.94;90.89;151865.41;5103127;28;20449;-76
2022/02/13 07:27:00;;;;;;;9.33;6.50;;;;;;;2.13;90.43;151914.25;5089765;28;20459;-74
2022/02/13 07:29:36;;;;;;;8.47;5.90;;;;;;;2.29;89.47;151955.41;5099464;28;20519;-76
2022/02/13 07:32:11;;;;;;;8.57;6.20;;;;;;;2.46;88.87;151999.09;5098920;28;20505;-76
2022/02/13 07:34:47;;;;;;;9.10;6.40;;;;;;;2.57;88.72;152024.88;5095086;28;20455;-76
2022/02/13 07:37:24;;;;;;;9.67;6.87;;;;;;;2.69;88.71;152055.72;5088012;28;20463;-77
2022/02/13 07:40:00;;;;;;;8.70;6.10;;;;;;;2.77;88.92;152076.28;5106004;28;20444;-77
2022/02/13 07:42:35;;;;;;;7.83;5.93;;;;;;;2.91;88.30;152113.56;5109071;28;20482;-76
2022/02/13 07:45:11;;;;;;;8.80;6.90;;;;;;;3.16;87.71;152175.34;5101947;28;20452;-76
2022/02/13 07:47:47;;;;;;;6.53;5.53;;;;;;;3.24;86.44;152197.22;5104573;28;20942;-76
2022/02/13 07:50:22;;;;;;;7.43;6.20;;;;;;;3.45;85.92;152250.00;5098519;28;20435;-76
2022/02/13 07:52:59;;;;;;;9.57;5.93;;;;;;;3.56;85.12;152279.63;5083838;28;20447;-77
2022/02/13 07:55:35;;;;;;;7.80;6.23;;;;;;;3.81;82.90;152341.41;5106683;28;20444;-77
2022/02/13 07:58:10;;;;;;;7.83;5.70;;;;;;;3.89;83.25;152363.25;5082757;28;20448;-77
2022/02/13 08:00:46;;;;;;;8.30;5.77;;;;;;;3.83;83.94;152347.84;5084894;28;21024;-77
2022/02/13 08:03:22;;;;;;;8.83;6.20;;;;;;;3.88;81.92;152359.44;5103243;28;20492;-77
2022/02/13 08:05:57;;;;;;;6.97;6.27;;;;;;;4.02;83.10;152396.78;5103900;28;20440;-77
2022/02/13 08:08:36;;;;;;;8.70;6.17;;;;;;;4.13;80.90;152423.84;5088339;28;20456;-77
2022/02/13 08:11:12;;;;;;;7.97;6.27;;;;;;;4.18;81.87;152437.97;5104677;28;20934;-77
2022/02/13 08:13:49;;;;;;;10.97;5.57;;;;;;;4.17;81.01;152434.13;5102693;28;20709;-77
2022/02/13 08:16:25;;;;;;;7.00;6.30;;;;;;;4.10;80.89;152416.09;5090082;28;20799;-77
2022/02/13 08:19:00;;;;;;;7.13;6.33;;;;;;;4.10;81.83;152416.09;5090223;28;20489;-77
2022/02/13 08:21:36;;;;;;;7.57;6.33;;;;;;;4.18;81.42;152436.72;5091667;28;20499;-77
2022/02/13 08:24:13;;;;;;;8.27;6.70;;;;;;;4.26;81.60;152458.56;5099279;28;20476;-77
2022/02/13 08:26:50;;;;;;;7.07;6.03;;;;;;;4.30;79.90;152468.91;5110691;28;20460;-77
2022/02/13 08:29:26;;;;;;;6.80;6.10;;;;;;;4.28;80.93;152462.47;5103690;28;20593;-77
2022/02/13 08:32:01;;;;;;;7.50;6.50;;;;;;;4.42;80.26;152497.25;5102429;28;20547;-77
2022/02/13 08:34:37;;;;;;;7.10;5.77;;;;;;;4.44;78.73;152503.69;5104930;28;20436;-77
2022/02/13 08:37:13;;;;;;;7.43;6.00;;;;;;;4.41;79.50;152495.94;5093469;28;20448;-77
2022/02/13 08:39:49;;;;;;;8.27;6.57;;;;;;;4.40;80.29;152492.06;5085676;28;20562;-77
2022/02/13 08:42:25;;;;;;;8.93;6.17;;;;;;;4.51;80.53;152520.41;5090899;28;20606;-77
2022/02/13 08:45:01;;;;;;;7.43;6.73;;;;;;;4.43;79.29;152501.09;5102371;28;20467;-77
2022/02/13 08:47:36;;;;;;;6.60;5.73;;;;;;;4.48;80.96;152513.97;5105071;28;20448;-77
2022/02/13 08:50:12;;;;;;;7.50;6.10;;;;;;;4.55;79.84;152530.72;5105629;28;20502;-77
2022/02/13 08:52:48;;;;;;;8.63;6.00;;;;;;;4.63;78.73;152552.59;5106069;28;20447;-77
2022/02/13 08:55:25;;;;;;;8.27;6.77;;;;;;;4.73;80.00;152577.13;5104145;27;20440;-76
2022/02/13 08:58:00;;;;;;;10.57;7.30;;;;;;;4.70;78.49;152569.38;5108182;27;20448;-77
2022/02/13 09:00:35;;;;;;;9.73;6.77;;;;;;;4.75;78.29;152583.56;5108663;28;20451;-77
2022/02/13 09:03:11;;;;;;;15.23;6.87;;;;;;;4.86;79.33;152611.91;5097352;28;20799;-77
2022/02/13 09:05:46;;;;;;;7.70;5.77;;;;;;;4.95;77.19;152633.78;5100214;28;20445;-78
2022/02/13 09:08:22;;;;;;;8.77;6.57;;;;;;;4.95;77.68;152632.53;5103696;28;20448;-77
2022/02/13 09:10:59;;;;;;;10.60;6.20;;;;;;;5.02;77.21;152651.84;5108510;28;20443;-77
2022/02/13 09:13:34;;;;;;;7.83;7.00;;;;;;;5.11;76.94;152673.78;5104794;28;20475;-77
2022/02/13 09:16:10;;;;;;;6.80;5.90;;;;;;;5.08;77.64;152666.03;5098809;28;20456;-77
2022/02/13 09:18:45;;;;;;;6.77;5.53;;;;;;;5.11;77.29;152673.78;5099103;28;20444;-78
2022/02/13 09:21:21;;;;;;;10.43;6.70;;;;;;;5.11;78.07;152673.78;5104102;28;20448;-77
2022/02/13 09:23:57;;;;;;;11.10;7.27;;;;;;;5.12;77.15;152676.31;5104118;28;20467;-77
2022/02/13 09:26:35;;;;;;;8.30;7.50;;;;;;;5.06;78.34;152660.84;5107717;28;20447;-77
2022/02/13 09:29:11;;;;;;;8.90;7.67;;;;;;;5.14;77.97;152681.47;5120044;27;20440;-76
2022/02/13 09:31:46;;;;;;;7.47;6.70;;;;;;;5.21;77.22;152700.84;5100737;28;20451;-77
2022/02/13 09:34:25;;;;;;;7.83;6.30;;;;;;;5.25;77.58;152709.84;5088094;28;20444;-77
2022/02/13 09:37:01;;;;;;;9.73;7.57;;;;;;;5.50;76.55;152774.31;5105996;28;20452;-78
2022/02/13 09:39:37;;;;;;;11.37;7.63;;;;;;;5.57;75.13;152791.06;5101644;28;20440;-77
2022/02/13 09:42:14;;;;;;;7.63;6.30;;;;;;;5.47;74.98;152766.59;5089927;28;20459;-78
2022/02/13 09:44:49;;;;;;;9.33;7.50;;;;;;;5.43;76.96;152756.25;5101208;28;20839;-78
2022/02/13 09:47:25;;;;;;;12.50;7.00;;;;;;;5.39;76.72;152747.25;5105164;28;20814;-78
2022/02/13 09:50:01;;;;;;;10.00;7.30;;;;;;;5.38;77.53;152743.34;5121908;27;20467;-78
2022/02/13 09:52:37;;;;;;;9.53;7.93;;;;;;;5.42;76.77;152753.69;5085351;28;20456;-77
2022/02/13 09:55:12;;;;;;;15.60;8.80;;;;;;;5.44;77.74;152758.84;5105017;28;20463;-77
2022/02/13 09:58:03;;;;;;;8.27;7.37;;;;;;;5.79;75.00;152849.13;5106110;28;20957;-77
2022/02/13 10:00:52;;;;;;;8.73;7.63;;;;;;;5.78;74.76;152846.53;5097596;28;20440;-77
2022/02/13 10:03:29;;;;;;;8.20;7.40;;;;;;;6.01;74.63;152905.88;5086445;28;20501;-77
2022/02/13 10:06:20;;;;;;;7.93;7.00;;;;;;;6.09;74.08;152925.22;5090171;28;20448;-77
2022/02/13 10:08:58;;;;;;;9.30;8.00;;;;;;;6.29;73.23;152975.56;5101975;28;20444;-77
2022/02/13 10:11:35;;;;;;;14.90;8.07;;;;;;;6.37;72.81;152996.22;5104287;28;20815;-77
2022/02/13 10:14:15;;;;;;;8.57;7.27;;;;;;;6.47;72.35;153022.00;5103047;28;20448;-77
2022/02/13 10:16:50;;;;;;;10.87;7.90;;;;;;;6.46;71.73;153020.72;5088241;28;20944;-77
2022/02/13 10:19:26;;;;;;;11.90;8.87;;;;;;;6.26;73.11;152969.13;5084991;28;20448;-77
2022/02/13 10:22:01;;;;;;;11.33;8.30;;;;;;;6.23;73.62;152960.06;5102573;28;20471;-77
2022/02/13 10:24:37;;;;;;;11.83;7.97;;;;;;;6.12;73.88;152934.28;5103920;28;20967;-77
2022/02/13 10:27:14;;;;;;;9.73;8.20;;;;;;;6.09;74.52;152925.22;5121175;27;20551;-77
2022/02/13 10:29:56;;;;;;;9.87;8.00;;;;;;;6.14;73.81;152939.44;5104451;28;21622;-77
2022/02/13 10:32:39;;;;;;;12.20;8.70;;;;;;;6.21;74.65;152954.94;5102483;28;20963;-77
2022/02/13 10:35:16;;;;;;;11.03;9.27;;;;;;;6.61;71.74;153058.16;5100973;28;20947;-77
2022/02/13 10:37:55;;;;;;;13.13;8.90;;;;;;;6.71;71.18;153083.97;5102283;28;20463;-77
2022/02/13 10:40:31;;;;;;;10.00;8.60;;;;;;;6.88;71.14;153126.59;5104073;28;20885;-77
2022/02/13 10:43:09;;;;;;;9.87;8.17;;;;;;;6.74;71.67;153093.03;5090045;28;20623;-77
2022/02/13 10:45:46;;;;;;;9.93;7.57;;;;;;;6.91;70.58;153135.59;5105965;28;20472;-77
2022/02/13 10:48:21;;;;;;;13.03;8.03;;;;;;;7.11;69.28;153187.25;5090328;28;20440;-77
2022/02/13 10:50:58;;;;;;;9.80;6.70;;;;;;;7.14;69.52;153195.00;5104122;28;20793;-77
2022/02/13 10:53:34;;;;;;;10.30;7.70;;;;;;;7.20;69.33;153210.47;5088042;28;20954;-77
2022/02/13 10:56:10;;;;;;;22.70;8.17;;;;;;;7.21;69.20;153213.06;5103860;28;20464;-77
2022/02/13 10:58:45;;;;;;;8.17;6.80;;;;;;;7.08;69.44;153179.50;5099436;28;20472;-77
2022/02/13 11:01:23;;;;;;;9.73;6.93;;;;;;;7.01;69.10;153160.13;5088115;28;20455;-77
2022/02/13 11:04:03;;;;;;;12.40;7.90;;;;;;;6.96;69.98;153147.25;5102399;28;20464;-77
2022/02/13 11:06:40;;;;;;;11.80;8.97;;;;;;;7.14;69.39;153195.00;5104462;28;20480;-77
2022/02/13 11:09:18;;;;;;;13.63;8.07;;;;;;;7.27;69.36;153227.28;5102130;28;20452;-77
2022/02/13 11:11:57;;;;;;;10.67;8.70;;;;;;;7.13;70.04;153192.41;5099766;28;20440;-77
2022/02/13 11:14:37;;;;;;;8.80;7.30;;;;;;;7.25;69.93;153222.13;5079369;28;20448;-77
2022/02/13 11:17:28;;;;;;;9.27;7.50;;;;;;;7.56;68.58;153300.88;5087850;28;20452;-77
2022/02/13 11:20:05;;;;;;;9.30;8.30;;;;;;;7.67;67.68;153329.31;5102697;28;20444;-77
2022/02/13 11:22:41;;;;;;;15.43;8.83;;;;;;;7.63;68.09;153320.25;5102469;28;20875;-77
2022/02/13 11:25:18;;;;;;;9.47;8.43;;;;;;;7.87;68.42;153380.97;5085018;28;20476;-77
2022/02/13 11:27:57;;;;;;;9.80;8.43;;;;;;;7.89;67.44;153387.41;5105212;28;20505;-77
2022/02/13 11:30:43;;;;;;;12.93;9.27;;;;;;;7.61;68.98;153315.09;5100562;28;20440;-77
2022/02/13 11:33:45;;;;;;;13.10;7.87;;;;;;;7.81;68.31;153366.75;5105560;28;20449;-77
2022/02/13 11:36:20;;;;;;;12.43;7.43;;;;;;;7.85;67.63;153377.09;5101567;28;20448;-77
2022/02/13 11:38:57;;;;;;;10.50;7.83;;;;;;;7.97;67.71;153408.09;5082880;28;22420;-77
2022/02/13 11:42:10;;;;;;;14.50;9.37;;;;;;;8.11;67.01;153443.00;5103306;28;20954;-77
2022/02/13 11:44:49;;;;;;;11.90;8.20;;;;;;;8.22;67.33;153471.44;5045995;28;20465;-77
2022/02/13 11:47:40;;;;;;;8.73;7.83;;;;;;;8.18;66.62;153461.06;5050595;28;20443;-78
2022/02/13 11:50:27;;;;;;;9.23;8.07;;;;;;;8.14;67.54;153450.75;5050039;28;20465;-77
2022/02/13 11:53:05;;;;;;;11.07;8.50;;;;;;;8.44;66.68;153527.06;5065380;28;20462;-77
2022/02/13 11:55:41;;;;;;;8.40;7.60;;;;;;;8.23;66.78;153474.03;5071446;28;20544;-77
2022/02/13 11:58:18;;;;;;;9.90;7.77;;;;;;;8.35;64.30;153505.06;5071682;28;20450;-77
2022/02/13 12:00:54;;;;;;;12.07;9.27;;;;;;;8.63;64.87;153574.88;5069561;28;20433;-77
2022/02/13 12:03:32;;;;;;;8.90;7.23;;;;;;;8.44;64.69;153527.06;5065429;28;20540;-77
2022/02/13 12:06:31;;;;;;;7.77;5.70;;;;;;;8.35;63.19;153505.06;5069317;28;20812;-77
2022/02/13 12:09:10;;;;;;;7.67;5.17;;;;;;;8.70;61.95;153592.97;5051732;28;20453;-77